Terminal Aerodrome Forecast
Issued by NWS

Home | Current Version | Previous Version | Text Only | Print | Product List | Glossary On
Versions: 1 2 3 4 5 6 7 8 9 10 11 12 13 14 15 16 17 18 19 20 21 22 23
000
FTAK31 PAJN 021721
TAFAKT
TAF
PAKT 021721Z 0218/0318 34010KT P6SM FEW022 SCT100
     FM030500 32005KT P6SM SCT100
     FM031200 VRB03KT P6SM VCFG FEW002 SCT100
      AMD LTD TO CLD VIS AND WIND 0306/0315=

USA.gov is the U.S. government's official web portal to all federal, state and local government web resources and services.